sensor_id;sensor_type;location;lat;lon;timestamp;P1;durP1;ratioP1;P2;durP2;ratioP2
53867;SDS011;41577;47.470;19.080;2022-10-03T00:00:00;1.05;;;0.60;;
53867;SDS011;41577;47.470;19.080;2022-10-03T00:00:23;1.88;;;0.60;;
53867;SDS011;41577;47.470;19.080;2022-10-03T00:00:54;2.00;;;0.63;;
53867;SDS011;41577;47.470;19.080;2022-10-03T00:01:40;1.20;;;0.57;;
53867;SDS011;41577;47.470;19.080;2022-10-03T00:02:10;0.90;;;0.55;;
53867;SDS011;41577;47.470;19.080;2022-10-03T00:02:49;3.72;;;0.80;;
53867;SDS011;41577;47.470;19.080;2022-10-03T00:03:33;3.50;;;0.77;;
53867;SDS011;41577;47.470;19.080;2022-10-03T00:03:56;2.40;;;0.70;;
53867;SDS011;41577;47.470;19.080;2022-10-03T00:04:36;1.70;;;0.68;;
53867;SDS011;41577;47.470;19.080;2022-10-03T00:05:11;1.13;;;0.63;;
53867;SDS011;41577;47.470;19.080;2022-10-03T00:05:43;2.15;;;0.90;;
53867;SDS011;41577;47.470;19.080;2022-10-03T00:06:20;1.48;;;0.80;;
53867;SDS011;41577;47.470;19.080;2022-10-03T00:06:44;1.80;;;0.60;;
53867;SDS011;41577;47.470;19.080;2022-10-03T00:07:09;1.80;;;0.70;;
53867;SDS011;41577;47.470;19.080;2022-10-03T00:07:46;1.60;;;0.50;;
53867;SDS011;41577;47.470;19.080;2022-10-03T00:08:21;1.00;;;0.60;;
53867;SDS011;41577;47.470;19.080;2022-10-03T00:08:54;3.08;;;0.90;;
53867;SDS011;41577;47.470;19.080;2022-10-03T00:09:25;1.05;;;0.60;;
53867;SDS011;41577;47.470;19.080;2022-10-03T00:09:54;1.00;;;0.63;;
53867;SDS011;41577;47.470;19.080;2022-10-03T00:10:21;2.47;;;0.80;;
53867;SDS011;41577;47.470;19.080;2022-10-03T00:10:49;1.50;;;0.70;;
53867;SDS011;41577;47.470;19.080;2022-10-03T00:11:13;1.15;;;0.50;;
53867;SDS011;41577;47.470;19.080;2022-10-03T00:11:42;1.65;;;0.63;;
53867;SDS011;41577;47.470;19.080;2022-10-03T00:12:08;8.50;;;1.00;;
53867;SDS011;41577;47.470;19.080;2022-10-03T00:12:35;1.70;;;0.73;;
53867;SDS011;41577;47.470;19.080;2022-10-03T00:13:06;0.70;;;0.45;;
53867;SDS011;41577;47.470;19.080;2022-10-03T00:13:32;1.00;;;0.60;;
53867;SDS011;41577;47.470;19.080;2022-10-03T00:13:56;0.80;;;0.43;;
53867;SDS011;41577;47.470;19.080;2022-10-03T00:14:16;1.00;;;0.50;;
53867;SDS011;41577;47.470;19.080;2022-10-03T00:14:39;1.20;;;0.70;;
53867;SDS011;41577;47.470;19.080;2022-10-03T00:14:59;1.88;;;0.80;;
53867;SDS011;41577;47.470;19.080;2022-10-03T00:15:20;1.80;;;0.80;;
53867;SDS011;41577;47.470;19.080;2022-10-03T00:15:43;1.83;;;0.57;;
53867;SDS011;41577;47.470;19.080;2022-10-03T00:16:04;2.47;;;0.70;;
53867;SDS011;41577;47.470;19.080;2022-10-03T00:16:26;1.38;;;0.68;;
53867;SDS011;41577;47.470;19.080;2022-10-03T00:16:52;3.05;;;0.52;;
53867;SDS011;41577;47.470;19.080;2022-10-03T00:17:16;1.92;;;0.77;;
53867;SDS011;41577;47.470;19.080;2022-10-03T00:17:43;2.13;;;0.85;;
53867;SDS011;41577;47.470;19.080;2022-10-03T00:18:05;0.90;;;0.60;;
53867;SDS011;41577;47.470;19.080;2022-10-03T00:18:34;1.42;;;0.80;;
53867;SDS011;41577;47.470;19.080;2022-10-03T00:18:57;2.70;;;0.90;;
53867;SDS011;41577;47.470;19.080;2022-10-03T00:19:21;1.83;;;0.68;;
53867;SDS011;41577;47.470;19.080;2022-10-03T00:19:46;1.48;;;0.60;;
53867;SDS011;41577;47.470;19.080;2022-10-03T00:20:13;3.83;;;0.50;;
53867;SDS011;41577;47.470;19.080;2022-10-03T00:20:52;0.85;;;0.70;;
53867;SDS011;41577;47.470;19.080;2022-10-03T00:21:20;3.92;;;0.90;;
53867;SDS011;41577;47.470;19.080;2022-10-03T00:21:51;1.63;;;1.00;;
53867;SDS011;41577;47.470;19.080;2022-10-03T00:22:16;1.10;;;0.80;;
53867;SDS011;41577;47.470;19.080;2022-10-03T00:22:42;1.73;;;0.80;;
53867;SDS011;41577;47.470;19.080;2022-10-03T00:23:06;3.80;;;0.80;;
53867;SDS011;41577;47.470;19.080;2022-10-03T00:23:26;7.60;;;0.80;;
53867;SDS011;41577;47.470;19.080;2022-10-03T00:23:50;7.45;;;0.70;;
53867;SDS011;41577;47.470;19.080;2022-10-03T00:24:19;3.30;;;0.80;;
53867;SDS011;41577;47.470;19.080;2022-10-03T00:24:44;1.25;;;0.65;;
53867;SDS011;41577;47.470;19.080;2022-10-03T00:25:23;1.13;;;0.70;;
53867;SDS011;41577;47.470;19.080;2022-10-03T00:25:48;0.77;;;0.77;;
53867;SDS011;41577;47.470;19.080;2022-10-03T00:26:10;0.70;;;0.68;;
53867;SDS011;41577;47.470;19.080;2022-10-03T00:26:44;5.22;;;1.00;;
53867;SDS011;41577;47.470;19.080;2022-10-03T00:27:04;2.38;;;0.82;;
53867;SDS011;41577;47.470;19.080;2022-10-03T00:27:26;2.05;;;0.80;;
53867;SDS011;41577;47.470;19.080;2022-10-03T00:27:46;2.30;;;0.80;;
53867;SDS011;41577;47.470;19.080;2022-10-03T00:28:09;6.45;;;0.98;;
53867;SDS011;41577;47.470;19.080;2022-10-03T00:28:41;1.88;;;0.90;;
53867;SDS011;41577;47.470;19.080;2022-10-03T00:29:14;2.92;;;0.88;;
53867;SDS011;41577;47.470;19.080;2022-10-03T00:29:45;1.02;;;0.57;;
53867;SDS011;41577;47.470;19.080;2022-10-03T00:30:15;1.23;;;0.80;;
53867;SDS011;41577;47.470;19.080;2022-10-03T00:30:41;4.72;;;0.70;;
53867;SDS011;41577;47.470;19.080;2022-10-03T00:31:06;1.02;;;0.60;;
53867;SDS011;41577;47.470;19.080;2022-10-03T00:31:33;0.82;;;0.70;;
53867;SDS011;41577;47.470;19.080;2022-10-03T00:31:59;4.00;;;0.55;;
53867;SDS011;41577;47.470;19.080;2022-10-03T00:32:30;0.73;;;0.63;;
53867;SDS011;41577;47.470;19.080;2022-10-03T00:33:08;1.02;;;0.65;;
53867;SDS011;41577;47.470;19.080;2022-10-03T00:33:32;1.95;;;0.80;;
53867;SDS011;41577;47.470;19.080;2022-10-03T00:34:02;3.33;;;0.80;;
53867;SDS011;41577;47.470;19.080;2022-10-03T00:34:27;2.40;;;0.85;;
53867;SDS011;41577;47.470;19.080;2022-10-03T00:35:01;3.10;;;1.08;;
53867;SDS011;41577;47.470;19.080;2022-10-03T00:35:34;2.65;;;1.00;;
53867;SDS011;41577;47.470;19.080;2022-10-03T00:36:03;2.53;;;0.80;;
53867;SDS011;41577;47.470;19.080;2022-10-03T00:36:33;1.80;;;0.68;;
53867;SDS011;41577;47.470;19.080;2022-10-03T00:37:10;0.60;;;0.60;;
53867;SDS011;41577;47.470;19.080;2022-10-03T00:37:35;2.25;;;0.90;;
53867;SDS011;41577;47.470;19.080;2022-10-03T00:37:57;1.45;;;0.80;;
53867;SDS011;41577;47.470;19.080;2022-10-03T00:39:14;1.13;;;0.73;;
53867;SDS011;41577;47.470;19.080;2022-10-03T00:39:41;1.75;;;1.00;;
53867;SDS011;41577;47.470;19.080;2022-10-03T00:40:12;2.17;;;0.98;;
53867;SDS011;41577;47.470;19.080;2022-10-03T00:40:53;2.50;;;0.70;;
53867;SDS011;41577;47.470;19.080;2022-10-03T00:42:40;4.25;;;0.60;;
53867;SDS011;41577;47.470;19.080;2022-10-03T00:43:28;2.42;;;0.90;;
53867;SDS011;41577;47.470;19.080;2022-10-03T00:44:17;1.25;;;0.80;;
53867;SDS011;41577;47.470;19.080;2022-10-03T00:44:57;1.90;;;0.65;;
53867;SDS011;41577;47.470;19.080;2022-10-03T00:45:44;2.00;;;0.90;;
53867;SDS011;41577;47.470;19.080;2022-10-03T00:46:19;1.83;;;0.75;;
53867;SDS011;41577;47.470;19.080;2022-10-03T00:47:51;2.33;;;0.85;;
53867;SDS011;41577;47.470;19.080;2022-10-03T00:49:08;3.88;;;1.40;;
53867;SDS011;41577;47.470;19.080;2022-10-03T00:50:00;1.25;;;0.95;;
53867;SDS011;41577;47.470;19.080;2022-10-03T00:51:18;2.40;;;1.00;;
53867;SDS011;41577;47.470;19.080;2022-10-03T00:51:44;1.20;;;0.93;;
53867;SDS011;41577;47.470;19.080;2022-10-03T00:53:16;1.50;;;0.90;;
53867;SDS011;41577;47.470;19.080;2022-10-03T00:53:42;1.83;;;0.80;;
53867;SDS011;41577;47.470;19.080;2022-10-03T00:54:10;3.30;;;1.00;;
53867;SDS011;41577;47.470;19.080;2022-10-03T00:54:42;1.42;;;0.80;;
53867;SDS011;41577;47.470;19.080;2022-10-03T00:55:10;2.53;;;1.00;;
53867;SDS011;41577;47.470;19.080;2022-10-03T00:55:35;1.73;;;0.88;;
53867;SDS011;41577;47.470;19.080;2022-10-03T00:56:06;1.35;;;0.95;;
53867;SDS011;41577;47.470;19.080;2022-10-03T00:56:43;1.65;;;0.90;;
53867;SDS011;41577;47.470;19.080;2022-10-03T00:57:20;1.80;;;0.90;;
53867;SDS011;41577;47.470;19.080;2022-10-03T00:58:09;1.60;;;0.80;;
53867;SDS011;41577;47.470;19.080;2022-10-03T00:58:44;2.55;;;0.90;;
53867;SDS011;41577;47.470;19.080;2022-10-03T00:59:18;1.25;;;0.77;;
53867;SDS011;41577;47.470;19.080;2022-10-03T01:00:00;2.90;;;0.90;;
53867;SDS011;41577;47.470;19.080;2022-10-03T01:00:20;2.28;;;1.10;;
53867;SDS011;41577;47.470;19.080;2022-10-03T01:00:37;0.85;;;0.80;;
53867;SDS011;41577;47.470;19.080;2022-10-03T01:00:56;1.02;;;0.90;;
53867;SDS011;41577;47.470;19.080;2022-10-03T01:01:27;1.70;;;1.00;;
53867;SDS011;41577;47.470;19.080;2022-10-03T01:01:48;2.95;;;0.88;;
53867;SDS011;41577;47.470;19.080;2022-10-03T01:02:17;2.45;;;0.80;;
53867;SDS011;41577;47.470;19.080;2022-10-03T01:02:45;1.90;;;0.85;;
53867;SDS011;41577;47.470;19.080;2022-10-03T01:03:17;1.52;;;0.90;;
53867;SDS011;41577;47.470;19.080;2022-10-03T01:03:48;1.00;;;0.88;;
53867;SDS011;41577;47.470;19.080;2022-10-03T01:04:22;0.82;;;0.75;;
53867;SDS011;41577;47.470;19.080;2022-10-03T01:04:49;1.17;;;0.70;;
53867;SDS011;41577;47.470;19.080;2022-10-03T01:05:15;2.35;;;0.80;;
53867;SDS011;41577;47.470;19.080;2022-10-03T01:05:48;1.77;;;0.82;;
53867;SDS011;41577;47.470;19.080;2022-10-03T01:06:19;2.97;;;1.10;;
53867;SDS011;41577;47.470;19.080;2022-10-03T01:06:45;1.45;;;0.98;;
53867;SDS011;41577;47.470;19.080;2022-10-03T01:07:15;2.08;;;0.95;;
53867;SDS011;41577;47.470;19.080;2022-10-03T01:07:52;2.55;;;0.95;;
53867;SDS011;41577;47.470;19.080;2022-10-03T01:08:25;2.42;;;1.13;;
53867;SDS011;41577;47.470;19.080;2022-10-03T01:09:01;1.30;;;1.00;;
53867;SDS011;41577;47.470;19.080;2022-10-03T01:10:11;3.60;;;1.15;;
53867;SDS011;41577;47.470;19.080;2022-10-03T01:10:32;4.32;;;1.35;;
53867;SDS011;41577;47.470;19.080;2022-10-03T01:10:55;2.85;;;1.02;;
53867;SDS011;41577;47.470;19.080;2022-10-03T01:11:24;3.28;;;1.20;;
53867;SDS011;41577;47.470;19.080;2022-10-03T01:12:03;1.95;;;0.80;;
53867;SDS011;41577;47.470;19.080;2022-10-03T01:12:34;1.50;;;0.90;;
53867;SDS011;41577;47.470;19.080;2022-10-03T01:13:14;0.90;;;0.82;;
53867;SDS011;41577;47.470;19.080;2022-10-03T01:13:44;2.45;;;0.80;;
53867;SDS011;41577;47.470;19.080;2022-10-03T01:14:10;3.10;;;0.90;;
53867;SDS011;41577;47.470;19.080;2022-10-03T01:14:42;1.40;;;0.70;;
53867;SDS011;41577;47.470;19.080;2022-10-03T01:15:12;1.70;;;0.93;;
53867;SDS011;41577;47.470;19.080;2022-10-03T01:15:41;2.15;;;0.98;;
53867;SDS011;41577;47.470;19.080;2022-10-03T01:16:06;3.42;;;1.05;;
53867;SDS011;41577;47.470;19.080;2022-10-03T01:16:36;1.45;;;0.90;;
53867;SDS011;41577;47.470;19.080;2022-10-03T01:17:08;1.58;;;0.90;;
53867;SDS011;41577;47.470;19.080;2022-10-03T01:17:30;8.60;;;1.23;;
53867;SDS011;41577;47.470;19.080;2022-10-03T01:18:02;1.90;;;0.85;;
53867;SDS011;41577;47.470;19.080;2022-10-03T01:18:27;1.50;;;0.90;;
53867;SDS011;41577;47.470;19.080;2022-10-03T01:18:56;4.57;;;1.17;;
53867;SDS011;41577;47.470;19.080;2022-10-03T01:19:26;6.35;;;1.23;;
53867;SDS011;41577;47.470;19.080;2022-10-03T01:20:38;1.40;;;0.98;;
53867;SDS011;41577;47.470;19.080;2022-10-03T01:21:06;2.72;;;1.45;;
53867;SDS011;41577;47.470;19.080;2022-10-03T01:21:35;1.85;;;0.93;;
53867;SDS011;41577;47.470;19.080;2022-10-03T01:21:59;1.60;;;0.90;;
53867;SDS011;41577;47.470;19.080;2022-10-03T01:22:35;1.75;;;0.82;;
53867;SDS011;41577;47.470;19.080;2022-10-03T01:24:42;3.80;;;1.27;;
53867;SDS011;41577;47.470;19.080;2022-10-03T01:25:10;2.17;;;0.90;;
53867;SDS011;41577;47.470;19.080;2022-10-03T01:25:29;1.58;;;0.93;;
53867;SDS011;41577;47.470;19.080;2022-10-03T01:25:51;2.38;;;0.93;;
53867;SDS011;41577;47.470;19.080;2022-10-03T01:26:23;2.67;;;0.98;;
53867;SDS011;41577;47.470;19.080;2022-10-03T01:26:53;0.88;;;0.88;;
53867;SDS011;41577;47.470;19.080;2022-10-03T01:27:12;1.05;;;0.70;;
53867;SDS011;41577;47.470;19.080;2022-10-03T01:27:35;1.95;;;0.73;;
53867;SDS011;41577;47.470;19.080;2022-10-03T01:28:28;4.80;;;1.02;;
53867;SDS011;41577;47.470;19.080;2022-10-03T01:29:19;1.25;;;0.80;;
53867;SDS011;41577;47.470;19.080;2022-10-03T01:29:57;5.38;;;1.13;;
53867;SDS011;41577;47.470;19.080;2022-10-03T01:30:34;1.20;;;1.00;;
53867;SDS011;41577;47.470;19.080;2022-10-03T01:30:55;1.92;;;0.90;;
53867;SDS011;41577;47.470;19.080;2022-10-03T01:31:16;1.63;;;0.82;;
53867;SDS011;41577;47.470;19.080;2022-10-03T01:31:38;1.98;;;0.70;;
53867;SDS011;41577;47.470;19.080;2022-10-03T01:31:59;1.80;;;0.80;;
53867;SDS011;41577;47.470;19.080;2022-10-03T01:32:19;1.30;;;0.88;;
53867;SDS011;41577;47.470;19.080;2022-10-03T01:32:43;1.27;;;0.90;;
53867;SDS011;41577;47.470;19.080;2022-10-03T01:33:06;1.90;;;1.00;;
53867;SDS011;41577;47.470;19.080;2022-10-03T01:33:24;2.15;;;1.00;;
53867;SDS011;41577;47.470;19.080;2022-10-03T01:33:45;1.88;;;0.95;;
53867;SDS011;41577;47.470;19.080;2022-10-03T01:34:09;2.03;;;0.88;;
53867;SDS011;41577;47.470;19.080;2022-10-03T01:34:30;1.52;;;1.10;;
53867;SDS011;41577;47.470;19.080;2022-10-03T01:34:51;3.45;;;1.17;;
53867;SDS011;41577;47.470;19.080;2022-10-03T01:35:17;6.38;;;1.13;;
53867;SDS011;41577;47.470;19.080;2022-10-03T01:35:43;1.80;;;1.05;;
53867;SDS011;41577;47.470;19.080;2022-10-03T01:36:07;1.98;;;1.13;;
53867;SDS011;41577;47.470;19.080;2022-10-03T01:36:27;2.50;;;1.13;;
53867;SDS011;41577;47.470;19.080;2022-10-03T01:36:59;2.25;;;1.08;;
53867;SDS011;41577;47.470;19.080;2022-10-03T01:37:22;2.90;;;1.13;;
53867;SDS011;41577;47.470;19.080;2022-10-03T01:37:46;1.65;;;1.00;;
53867;SDS011;41577;47.470;19.080;2022-10-03T01:38:13;2.35;;;1.08;;
53867;SDS011;41577;47.470;19.080;2022-10-03T01:38:37;1.73;;;1.10;;
53867;SDS011;41577;47.470;19.080;2022-10-03T01:39:00;2.13;;;1.10;;
53867;SDS011;41577;47.470;19.080;2022-10-03T01:39:20;2.13;;;0.82;;
53867;SDS011;41577;47.470;19.080;2022-10-03T01:39:41;3.33;;;0.85;;
53867;SDS011;41577;47.470;19.080;2022-10-03T01:40:05;3.42;;;1.23;;
53867;SDS011;41577;47.470;19.080;2022-10-03T01:40:31;3.40;;;1.30;;
53867;SDS011;41577;47.470;19.080;2022-10-03T01:40:50;1.98;;;1.30;;
53867;SDS011;41577;47.470;19.080;2022-10-03T01:41:14;1.58;;;0.93;;
53867;SDS011;41577;47.470;19.080;2022-10-03T01:41:41;3.20;;;1.10;;
53867;SDS011;41577;47.470;19.080;2022-10-03T01:42:04;3.55;;;1.02;;
53867;SDS011;41577;47.470;19.080;2022-10-03T01:42:30;2.34;;;1.30;;
53867;SDS011;41577;47.470;19.080;2022-10-03T01:43:02;2.50;;;1.00;;
53867;SDS011;41577;47.470;19.080;2022-10-03T01:43:29;3.50;;;0.80;;
53867;SDS011;41577;47.470;19.080;2022-10-03T01:43:51;4.82;;;1.00;;
53867;SDS011;41577;47.470;19.080;2022-10-03T01:44:10;8.07;;;1.10;;
53867;SDS011;41577;47.470;19.080;2022-10-03T01:44:37;6.15;;;1.05;;
53867;SDS011;41577;47.470;19.080;2022-10-03T01:45:07;1.58;;;0.85;;
53867;SDS011;41577;47.470;19.080;2022-10-03T01:45:28;5.45;;;1.27;;
53867;SDS011;41577;47.470;19.080;2022-10-03T01:45:58;2.38;;;1.00;;
53867;SDS011;41577;47.470;19.080;2022-10-03T01:46:22;1.77;;;1.20;;
53867;SDS011;41577;47.470;19.080;2022-10-03T01:46:48;2.00;;;1.20;;
53867;SDS011;41577;47.470;19.080;2022-10-03T01:47:12;1.83;;;1.00;;
53867;SDS011;41577;47.470;19.080;2022-10-03T01:47:34;3.20;;;1.23;;
53867;SDS011;41577;47.470;19.080;2022-10-03T01:47:52;3.40;;;0.95;;
53867;SDS011;41577;47.470;19.080;2022-10-03T01:48:11;2.00;;;0.90;;
53867;SDS011;41577;47.470;19.080;2022-10-03T01:48:33;4.10;;;1.10;;
53867;SDS011;41577;47.470;19.080;2022-10-03T01:48:58;2.65;;;1.02;;
53867;SDS011;41577;47.470;19.080;2022-10-03T01:49:23;1.52;;;1.27;;
53867;SDS011;41577;47.470;19.080;2022-10-03T01:49:45;3.47;;;1.20;;
53867;SDS011;41577;47.470;19.080;2022-10-03T01:50:11;1.80;;;1.00;;
53867;SDS011;41577;47.470;19.080;2022-10-03T01:50:33;1.73;;;0.85;;
53867;SDS011;41577;47.470;19.080;2022-10-03T01:50:59;2.95;;;1.40;;
53867;SDS011;41577;47.470;19.080;2022-10-03T01:51:18;3.45;;;1.40;;
53867;SDS011;41577;47.470;19.080;2022-10-03T01:51:40;2.60;;;1.10;;
53867;SDS011;41577;47.470;19.080;2022-10-03T01:52:04;2.00;;;1.00;;
53867;SDS011;41577;47.470;19.080;2022-10-03T01:52:24;2.15;;;1.08;;
53867;SDS011;41577;47.470;19.080;2022-10-03T01:52:51;2.10;;;1.17;;
53867;SDS011;41577;47.470;19.080;2022-10-03T01:53:11;2.08;;;1.15;;
53867;SDS011;41577;47.470;19.080;2022-10-03T01:53:39;1.33;;;1.00;;
53867;SDS011;41577;47.470;19.080;2022-10-03T01:54:05;1.88;;;1.20;;
53867;SDS011;41577;47.470;19.080;2022-10-03T01:54:32;2.25;;;1.23;;
53867;SDS011;41577;47.470;19.080;2022-10-03T01:54:55;2.65;;;1.00;;
53867;SDS011;41577;47.470;19.080;2022-10-03T01:55:17;1.10;;;1.00;;
53867;SDS011;41577;47.470;19.080;2022-10-03T01:55:40;3.22;;;0.95;;
53867;SDS011;41577;47.470;19.080;2022-10-03T01:56:07;1.98;;;0.88;;
53867;SDS011;41577;47.470;19.080;2022-10-03T01:56:28;1.67;;;0.80;;
53867;SDS011;41577;47.470;19.080;2022-10-03T01:56:51;3.33;;;0.93;;
53867;SDS011;41577;47.470;19.080;2022-10-03T01:57:12;4.65;;;1.10;;
53867;SDS011;41577;47.470;19.080;2022-10-03T01:57:33;1.63;;;1.10;;
53867;SDS011;41577;47.470;19.080;2022-10-03T01:57:53;1.98;;;1.10;;
53867;SDS011;41577;47.470;19.080;2022-10-03T01:58:18;1.20;;;1.10;;
53867;SDS011;41577;47.470;19.080;2022-10-03T01:58:48;2.33;;;1.17;;
53867;SDS011;41577;47.470;19.080;2022-10-03T01:59:12;2.92;;;1.13;;
53867;SDS011;41577;47.470;19.080;2022-10-03T01:59:32;3.30;;;1.20;;
53867;SDS011;41577;47.470;19.080;2022-10-03T01:59:53;1.90;;;1.17;;
53867;SDS011;41577;47.470;19.080;2022-10-03T02:00:25;2.55;;;1.40;;
53867;SDS011;41577;47.470;19.080;2022-10-03T02:00:51;2.08;;;1.15;;
53867;SDS011;41577;47.470;19.080;2022-10-03T02:01:11;2.30;;;1.33;;
53867;SDS011;41577;47.470;19.080;2022-10-03T02:01:38;6.18;;;1.20;;
53867;SDS011;41577;47.470;19.080;2022-10-03T02:02:05;2.50;;;1.30;;
53867;SDS011;41577;47.470;19.080;2022-10-03T02:02:27;1.38;;;1.00;;
53867;SDS011;41577;47.470;19.080;2022-10-03T02:02:47;2.42;;;1.30;;
53867;SDS011;41577;47.470;19.080;2022-10-03T02:03:07;2.33;;;1.35;;
53867;SDS011;41577;47.470;19.080;2022-10-03T02:03:29;2.80;;;1.33;;
53867;SDS011;41577;47.470;19.080;2022-10-03T02:03:51;3.22;;;1.40;;
53867;SDS011;41577;47.470;19.080;2022-10-03T02:04:11;2.78;;;1.40;;
53867;SDS011;41577;47.470;19.080;2022-10-03T02:04:35;2.78;;;1.27;;
53867;SDS011;41577;47.470;19.080;2022-10-03T02:04:59;4.03;;;1.15;;
53867;SDS011;41577;47.470;19.080;2022-10-03T02:05:23;2.30;;;1.20;;
53867;SDS011;41577;47.470;19.080;2022-10-03T02:05:53;2.03;;;1.13;;
53867;SDS011;41577;47.470;19.080;2022-10-03T02:06:17;3.15;;;1.27;;
53867;SDS011;41577;47.470;19.080;2022-10-03T02:06:39;2.28;;;1.25;;
53867;SDS011;41577;47.470;19.080;2022-10-03T02:07:04;2.85;;;1.30;;
53867;SDS011;41577;47.470;19.080;2022-10-03T02:07:27;3.35;;;1.67;;
53867;SDS011;41577;47.470;19.080;2022-10-03T02:07:49;3.42;;;1.38;;
53867;SDS011;41577;47.470;19.080;2022-10-03T02:08:09;2.22;;;1.15;;
53867;SDS011;41577;47.470;19.080;2022-10-03T02:08:43;1.52;;;1.10;;
53867;SDS011;41577;47.470;19.080;2022-10-03T02:09:07;3.20;;;1.50;;
53867;SDS011;41577;47.470;19.080;2022-10-03T02:09:33;1.75;;;1.02;;
53867;SDS011;41577;47.470;19.080;2022-10-03T02:10:02;2.13;;;1.15;;
53867;SDS011;41577;47.470;19.080;2022-10-03T02:10:27;2.67;;;1.13;;
53867;SDS011;41577;47.470;19.080;2022-10-03T02:10:52;3.80;;;1.33;;
53867;SDS011;41577;47.470;19.080;2022-10-03T02:11:20;3.38;;;1.33;;
53867;SDS011;41577;47.470;19.080;2022-10-03T02:11:53;1.80;;;1.20;;
53867;SDS011;41577;47.470;19.080;2022-10-03T02:12:18;3.38;;;1.45;;
53867;SDS011;41577;47.470;19.080;2022-10-03T02:12:44;1.45;;;1.02;;
53867;SDS011;41577;47.470;19.080;2022-10-03T02:13:07;2.03;;;1.20;;
53867;SDS011;41577;47.470;19.080;2022-10-03T02:13:27;2.60;;;1.15;;
53867;SDS011;41577;47.470;19.080;2022-10-03T02:13:57;6.47;;;1.35;;
53867;SDS011;41577;47.470;19.080;2022-10-03T02:14:19;2.20;;;1.45;;
53867;SDS011;41577;47.470;19.080;2022-10-03T02:14:45;3.15;;;1.58;;
53867;SDS011;41577;47.470;19.080;2022-10-03T02:15:08;2.60;;;1.30;;
53867;SDS011;41577;47.470;19.080;2022-10-03T02:15:31;2.90;;;1.55;;
53867;SDS011;41577;47.470;19.080;2022-10-03T02:15:56;4.20;;;1.52;;
53867;SDS011;41577;47.470;19.080;2022-10-03T02:16:22;1.92;;;1.08;;
53867;SDS011;41577;47.470;19.080;2022-10-03T02:16:51;2.30;;;1.40;;
53867;SDS011;41577;47.470;19.080;2022-10-03T02:17:15;3.53;;;1.27;;
53867;SDS011;41577;47.470;19.080;2022-10-03T02:17:45;2.00;;;1.35;;
53867;SDS011;41577;47.470;19.080;2022-10-03T02:18:10;2.25;;;1.45;;
53867;SDS011;41577;47.470;19.080;2022-10-03T02:18:33;2.40;;;1.50;;
53867;SDS011;41577;47.470;19.080;2022-10-03T02:18:57;3.58;;;1.13;;
53867;SDS011;41577;47.470;19.080;2022-10-03T02:19:17;1.67;;;1.10;;
53867;SDS011;41577;47.470;19.080;2022-10-03T02:19:40;1.42;;;1.20;;
53867;SDS011;41577;47.470;19.080;2022-10-03T02:20:03;2.33;;;1.40;;
53867;SDS011;41577;47.470;19.080;2022-10-03T02:20:29;2.80;;;1.10;;
53867;SDS011;41577;47.470;19.080;2022-10-03T02:20:49;2.55;;;1.27;;
53867;SDS011;41577;47.470;19.080;2022-10-03T02:21:09;4.13;;;1.33;;
53867;SDS011;41577;47.470;19.080;2022-10-03T02:21:30;4.70;;;1.48;;
53867;SDS011;41577;47.470;19.080;2022-10-03T02:21:46;3.75;;;1.65;;
53867;SDS011;41577;47.470;19.080;2022-10-03T02:22:12;1.58;;;1.15;;
53867;SDS011;41577;47.470;19.080;2022-10-03T02:22:29;2.63;;;1.42;;
53867;SDS011;41577;47.470;19.080;2022-10-03T02:22:48;4.00;;;1.30;;
53867;SDS011;41577;47.470;19.080;2022-10-03T02:23:14;3.55;;;1.48;;
53867;SDS011;41577;47.470;19.080;2022-10-03T02:23:41;1.77;;;1.10;;
53867;SDS011;41577;47.470;19.080;2022-10-03T02:24:07;2.72;;;1.35;;
53867;SDS011;41577;47.470;19.080;2022-10-03T02:24:40;5.30;;;1.60;;
53867;SDS011;41577;47.470;19.080;2022-10-03T02:25:04;3.72;;;1.27;;
53867;SDS011;41577;47.470;19.080;2022-10-03T02:25:38;2.10;;;1.20;;
53867;SDS011;41577;47.470;19.080;2022-10-03T02:26:09;1.42;;;1.10;;
53867;SDS011;41577;47.470;19.080;2022-10-03T02:26:51;3.63;;;1.20;;
53867;SDS011;41577;47.470;19.080;2022-10-03T02:27:34;1.48;;;1.08;;
53867;SDS011;41577;47.470;19.080;2022-10-03T02:28:13;2.75;;;1.50;;
53867;SDS011;41577;47.470;19.080;2022-10-03T02:29:45;2.95;;;1.33;;
53867;SDS011;41577;47.470;19.080;2022-10-03T02:30:12;6.45;;;1.60;;
53867;SDS011;41577;47.470;19.080;2022-10-03T02:30:33;4.18;;;1.30;;
53867;SDS011;41577;47.470;19.080;2022-10-03T02:31:05;3.22;;;1.48;;
53867;SDS011;41577;47.470;19.080;2022-10-03T02:31:51;3.40;;;1.33;;
53867;SDS011;41577;47.470;19.080;2022-10-03T02:32:42;3.75;;;1.40;;
53867;SDS011;41577;47.470;19.080;2022-10-03T02:34:23;3.15;;;1.20;;
53867;SDS011;41577;47.470;19.080;2022-10-03T02:34:46;2.80;;;1.40;;
53867;SDS011;41577;47.470;19.080;2022-10-03T02:35:49;4.53;;;1.17;;
53867;SDS011;41577;47.470;19.080;2022-10-03T02:37:36;2.03;;;1.30;;
53867;SDS011;41577;47.470;19.080;2022-10-03T02:38:14;2.67;;;1.35;;
53867;SDS011;41577;47.470;19.080;2022-10-03T02:41:15;3.63;;;1.60;;
53867;SDS011;41577;47.470;19.080;2022-10-03T02:42:58;1.98;;;1.40;;
53867;SDS011;41577;47.470;19.080;2022-10-03T02:43:40;6.70;;;1.40;;
53867;SDS011;41577;47.470;19.080;2022-10-03T02:45:24;3.53;;;1.40;;
53867;SDS011;41577;47.470;19.080;2022-10-03T02:46:14;10.20;;;1.70;;
53867;SDS011;41577;47.470;19.080;2022-10-03T02:47:00;3.97;;;1.38;;
53867;SDS011;41577;47.470;19.080;2022-10-03T02:52:15;3.22;;;1.67;;
53867;SDS011;41577;47.470;19.080;2022-10-03T02:52:56;4.25;;;1.50;;
53867;SDS011;41577;47.470;19.080;2022-10-03T02:54:28;9.98;;;1.48;;
53867;SDS011;41577;47.470;19.080;2022-10-03T02:55:12;3.63;;;1.80;;
53867;SDS011;41577;47.470;19.080;2022-10-03T02:55:56;4.97;;;1.55;;
53867;SDS011;41577;47.470;19.080;2022-10-03T02:56:39;1.88;;;1.20;;
53867;SDS011;41577;47.470;19.080;2022-10-03T02:57:23;3.95;;;1.50;;
53867;SDS011;41577;47.470;19.080;2022-10-03T02:58:54;3.40;;;1.55;;
53867;SDS011;41577;47.470;19.080;2022-10-03T02:59:38;4.00;;;1.58;;
53867;SDS011;41577;47.470;19.080;2022-10-03T03:00:10;2.55;;;1.42;;
53867;SDS011;41577;47.470;19.080;2022-10-03T03:00:31;2.58;;;1.50;;
53867;SDS011;41577;47.470;19.080;2022-10-03T03:01:00;4.65;;;1.77;;
53867;SDS011;41577;47.470;19.080;2022-10-03T03:01:47;5.53;;;1.70;;
53867;SDS011;41577;47.470;19.080;2022-10-03T03:03:00;4.50;;;1.80;;
53867;SDS011;41577;47.470;19.080;2022-10-03T03:03:30;4.88;;;1.83;;
53867;SDS011;41577;47.470;19.080;2022-10-03T03:04:17;2.15;;;1.58;;
53867;SDS011;41577;47.470;19.080;2022-10-03T03:05:07;3.72;;;1.48;;
53867;SDS011;41577;47.470;19.080;2022-10-03T03:05:40;2.70;;;1.65;;
53867;SDS011;41577;47.470;19.080;2022-10-03T03:06:16;2.63;;;1.60;;
53867;SDS011;41577;47.470;19.080;2022-10-03T03:06:56;2.75;;;1.40;;
53867;SDS011;41577;47.470;19.080;2022-10-03T03:07:30;3.00;;;1.30;;
53867;SDS011;41577;47.470;19.080;2022-10-03T03:08:07;4.68;;;1.80;;
53867;SDS011;41577;47.470;19.080;2022-10-03T03:08:45;4.20;;;1.60;;
53867;SDS011;41577;47.470;19.080;2022-10-03T03:10:34;2.67;;;1.50;;
53867;SDS011;41577;47.470;19.080;2022-10-03T03:11:50;3.40;;;1.58;;
53867;SDS011;41577;47.470;19.080;2022-10-03T03:13:31;2.78;;;1.67;;
53867;SDS011;41577;47.470;19.080;2022-10-03T03:14:38;4.45;;;1.70;;
53867;SDS011;41577;47.470;19.080;2022-10-03T03:16:34;4.03;;;1.67;;
53867;SDS011;41577;47.470;19.080;2022-10-03T03:16:55;3.62;;;1.58;;
53867;SDS011;41577;47.470;19.080;2022-10-03T03:17:23;4.68;;;1.50;;
53867;SDS011;41577;47.470;19.080;2022-10-03T03:17:47;4.45;;;1.80;;